RJST(METAR)
05/30 18:00
METAR RJST 300900Z 13006KT 9999 FEW030 18/12 Q1018 RMK 1CU030 A3009=
戻る
トップページへ戻る
IMOC Co,.Ltd.